sensor_id;sensor_type;location;lat;lon;timestamp;pressure;altitude;pressure_sealevel;temperature;humidity
66703;BME280;60933;46.398;-63.798;2022-09-09T00:02:21;101313.44;;;20.16;61.98
66703;BME280;60933;46.398;-63.798;2022-09-09T00:05:02;101324.69;;;20.18;61.99
66703;BME280;60933;46.398;-63.798;2022-09-09T00:07:47;101330.19;;;20.14;62.00
66703;BME280;60933;46.398;-63.798;2022-09-09T00:16:15;101329.34;;;19.97;63.11
66703;BME280;60933;46.398;-63.798;2022-09-09T00:21:39;101321.53;;;19.80;62.79
66703;BME280;60933;46.398;-63.798;2022-09-09T00:32:46;101345.84;;;19.66;63.76
66703;BME280;60933;46.398;-63.798;2022-09-09T00:35:21;101344.25;;;19.63;64.65
66703;BME280;60933;46.398;-63.798;2022-09-09T00:37:54;101347.03;;;19.60;65.22
66703;BME280;60933;46.398;-63.798;2022-09-09T00:43:31;101344.66;;;19.55;65.63
66703;BME280;60933;46.398;-63.798;2022-09-09T00:48:50;101343.19;;;19.50;65.79
66703;BME280;60933;46.398;-63.798;2022-09-09T00:57:05;101338.63;;;19.37;66.28
66703;BME280;60933;46.398;-63.798;2022-09-09T01:02:39;101329.56;;;19.27;65.84
66703;BME280;60933;46.398;-63.798;2022-09-09T01:05:19;101322.94;;;19.20;65.57
66703;BME280;60933;46.398;-63.798;2022-09-09T01:07:49;101322.03;;;19.21;65.58
66703;BME280;60933;46.398;-63.798;2022-09-09T01:10:47;101326.66;;;19.16;66.68
66703;BME280;60933;46.398;-63.798;2022-09-09T01:13:26;101329.53;;;19.11;67.33
66703;BME280;60933;46.398;-63.798;2022-09-09T01:15:58;101331.34;;;19.09;66.54
66703;BME280;60933;46.398;-63.798;2022-09-09T01:18:39;101321.97;;;19.05;66.67
66703;BME280;60933;46.398;-63.798;2022-09-09T01:24:13;101331.00;;;18.99;67.06
66703;BME280;60933;46.398;-63.798;2022-09-09T01:26:48;101322.66;;;18.91;66.89
66703;BME280;60933;46.398;-63.798;2022-09-09T01:29:18;101318.47;;;18.87;66.49
66703;BME280;60933;46.398;-63.798;2022-09-09T01:31:59;101329.13;;;18.83;67.40
66703;BME280;60933;46.398;-63.798;2022-09-09T01:34:30;101338.13;;;18.78;66.86
66703;BME280;60933;46.398;-63.798;2022-09-09T01:37:03;101343.66;;;18.72;67.84
66703;BME280;60933;46.398;-63.798;2022-09-09T01:39:33;101338.88;;;18.62;67.17
66703;BME280;60933;46.398;-63.798;2022-09-09T01:41:59;101344.31;;;18.58;67.15
66703;BME280;60933;46.398;-63.798;2022-09-09T01:44:25;101338.53;;;18.51;67.11
66703;BME280;60933;46.398;-63.798;2022-09-09T01:46:52;101336.22;;;18.45;67.02
66703;BME280;60933;46.398;-63.798;2022-09-09T01:49:19;101340.06;;;18.38;66.93
66703;BME280;60933;46.398;-63.798;2022-09-09T01:51:52;101328.22;;;18.30;67.27
66703;BME280;60933;46.398;-63.798;2022-09-09T01:54:20;101337.97;;;18.27;67.33
66703;BME280;60933;46.398;-63.798;2022-09-09T01:59:48;101349.00;;;18.14;68.29
66703;BME280;60933;46.398;-63.798;2022-09-09T02:02:39;101345.00;;;18.07;67.67
66703;BME280;60933;46.398;-63.798;2022-09-09T02:05:29;101352.25;;;18.00;68.77
66703;BME280;60933;46.398;-63.798;2022-09-09T02:08:07;101352.59;;;17.93;68.86
66703;BME280;60933;46.398;-63.798;2022-09-09T02:10:46;101347.84;;;17.82;68.82
66703;BME280;60933;46.398;-63.798;2022-09-09T02:13:20;101343.59;;;17.79;68.32
66703;BME280;60933;46.398;-63.798;2022-09-09T02:16:11;101349.97;;;17.74;68.69
66703;BME280;60933;46.398;-63.798;2022-09-09T02:21:09;101337.38;;;17.63;68.90
66703;BME280;60933;46.398;-63.798;2022-09-09T02:23:38;101339.38;;;17.58;68.59
66703;BME280;60933;46.398;-63.798;2022-09-09T02:26:05;101345.69;;;17.52;68.59
66703;BME280;60933;46.398;-63.798;2022-09-09T02:28:34;101339.22;;;17.42;69.05
66703;BME280;60933;46.398;-63.798;2022-09-09T02:31:02;101350.47;;;17.42;68.82
66703;BME280;60933;46.398;-63.798;2022-09-09T02:33:35;101343.97;;;17.32;69.24
66703;BME280;60933;46.398;-63.798;2022-09-09T02:36:03;101346.72;;;17.29;69.11
66703;BME280;60933;46.398;-63.798;2022-09-09T02:38:36;101352.22;;;17.22;69.40
66703;BME280;60933;46.398;-63.798;2022-09-09T02:41:05;101352.41;;;17.18;69.31
66703;BME280;60933;46.398;-63.798;2022-09-09T02:43:33;101350.00;;;17.13;69.43
66703;BME280;60933;46.398;-63.798;2022-09-09T02:49:40;101349.47;;;17.05;69.99
66703;BME280;60933;46.398;-63.798;2022-09-09T02:52:14;101351.34;;;17.01;69.63
66703;BME280;60933;46.398;-63.798;2022-09-09T02:54:44;101355.78;;;16.99;68.50
66703;BME280;60933;46.398;-63.798;2022-09-09T02:57:11;101355.03;;;16.97;68.47
66703;BME280;60933;46.398;-63.798;2022-09-09T02:59:38;101346.50;;;16.92;68.30
66703;BME280;60933;46.398;-63.798;2022-09-09T03:02:05;101356.09;;;16.91;68.58
66703;BME280;60933;46.398;-63.798;2022-09-09T03:04:31;101346.56;;;16.90;68.46
66703;BME280;60933;46.398;-63.798;2022-09-09T03:06:58;101352.69;;;16.89;68.63
66703;BME280;60933;46.398;-63.798;2022-09-09T03:09:24;101354.50;;;16.87;68.38
66703;BME280;60933;46.398;-63.798;2022-09-09T03:11:51;101356.34;;;16.85;68.43
66703;BME280;60933;46.398;-63.798;2022-09-09T03:14:18;101359.00;;;16.84;67.98
66703;BME280;60933;46.398;-63.798;2022-09-09T03:16:47;101362.50;;;16.83;68.11
66703;BME280;60933;46.398;-63.798;2022-09-09T03:19:13;101359.06;;;16.82;68.70
66703;BME280;60933;46.398;-63.798;2022-09-09T03:21:40;101356.53;;;16.81;68.15
66703;BME280;60933;46.398;-63.798;2022-09-09T03:24:06;101347.03;;;16.80;67.51
66703;BME280;60933;46.398;-63.798;2022-09-09T03:26:32;101346.13;;;16.81;67.55
66703;BME280;60933;46.398;-63.798;2022-09-09T03:28:58;101342.63;;;16.80;67.57
66703;BME280;60933;46.398;-63.798;2022-09-09T03:31:26;101336.78;;;16.75;66.99
66703;BME280;60933;46.398;-63.798;2022-09-09T03:33:59;101357.38;;;16.81;67.05
66703;BME280;60933;46.398;-63.798;2022-09-09T03:36:26;101355.69;;;16.80;66.88
66703;BME280;60933;46.398;-63.798;2022-09-09T03:38:53;101353.94;;;16.81;66.67
66703;BME280;60933;46.398;-63.798;2022-09-09T03:41:20;101359.00;;;16.84;66.68
66703;BME280;60933;46.398;-63.798;2022-09-09T03:43:53;101363.31;;;16.85;66.28
66703;BME280;60933;46.398;-63.798;2022-09-09T03:46:24;101357.25;;;16.84;66.11
66703;BME280;60933;46.398;-63.798;2022-09-09T03:48:51;101355.47;;;16.85;65.77
66703;BME280;60933;46.398;-63.798;2022-09-09T03:51:18;101361.56;;;16.85;67.44
66703;BME280;60933;46.398;-63.798;2022-09-09T03:53:44;101355.41;;;16.86;66.58
66703;BME280;60933;46.398;-63.798;2022-09-09T03:56:10;101352.94;;;16.83;66.67
66703;BME280;60933;46.398;-63.798;2022-09-09T03:58:37;101356.34;;;16.85;66.68
66703;BME280;60933;46.398;-63.798;2022-09-09T04:01:06;101364.94;;;16.87;67.80
66703;BME280;60933;46.398;-63.798;2022-09-09T04:03:34;101365.00;;;16.86;67.25
66703;BME280;60933;46.398;-63.798;2022-09-09T04:06:02;101364.09;;;16.87;66.59
66703;BME280;60933;46.398;-63.798;2022-09-09T04:08:29;101359.69;;;16.89;67.63
66703;BME280;60933;46.398;-63.798;2022-09-09T04:10:59;101358.75;;;16.90;67.77
66703;BME280;60933;46.398;-63.798;2022-09-09T04:13:27;101360.50;;;16.89;69.07
66703;BME280;60933;46.398;-63.798;2022-09-09T04:15:56;101360.50;;;16.89;66.21
66703;BME280;60933;46.398;-63.798;2022-09-09T04:18:23;101357.91;;;16.89;67.68
66703;BME280;60933;46.398;-63.798;2022-09-09T04:20:50;101360.44;;;16.92;67.50
66703;BME280;60933;46.398;-63.798;2022-09-09T04:23:17;101368.19;;;16.94;66.60
66703;BME280;60933;46.398;-63.798;2022-09-09T04:25:47;101363.69;;;16.98;65.90
66703;BME280;60933;46.398;-63.798;2022-09-09T04:28:15;101357.56;;;16.99;65.86
66703;BME280;60933;46.398;-63.798;2022-09-09T04:30:41;101360.75;;;17.05;63.53
66703;BME280;60933;46.398;-63.798;2022-09-09T04:33:08;101356.25;;;17.09;64.12
66703;BME280;60933;46.398;-63.798;2022-09-09T04:35:35;101365.38;;;17.19;62.87
66703;BME280;60933;46.398;-63.798;2022-09-09T04:38:02;101364.13;;;17.28;62.27
66703;BME280;60933;46.398;-63.798;2022-09-09T04:40:29;101361.19;;;17.36;63.57
66703;BME280;60933;46.398;-63.798;2022-09-09T04:42:58;101357.53;;;17.40;63.42
66703;BME280;60933;46.398;-63.798;2022-09-09T04:45:25;101358.25;;;17.44;62.67
66703;BME280;60933;46.398;-63.798;2022-09-09T04:47:52;101357.13;;;17.49;63.28
66703;BME280;60933;46.398;-63.798;2022-09-09T04:50:18;101357.00;;;17.52;62.98
66703;BME280;60933;46.398;-63.798;2022-09-09T04:52:45;101361.16;;;17.56;64.16
66703;BME280;60933;46.398;-63.798;2022-09-09T04:55:11;101354.03;;;17.60;63.63
66703;BME280;60933;46.398;-63.798;2022-09-09T04:57:39;101353.75;;;17.66;66.77
66703;BME280;60933;46.398;-63.798;2022-09-09T05:00:05;101343.31;;;17.66;67.76
66703;BME280;60933;46.398;-63.798;2022-09-09T05:02:32;101353.63;;;17.69;66.54
66703;BME280;60933;46.398;-63.798;2022-09-09T05:04:58;101344.06;;;17.70;66.21
66703;BME280;60933;46.398;-63.798;2022-09-09T05:07:26;101345.81;;;17.69;67.08
66703;BME280;60933;46.398;-63.798;2022-09-09T05:09:53;101349.28;;;17.70;65.54
66703;BME280;60933;46.398;-63.798;2022-09-09T05:12:19;101346.59;;;17.71;68.12
66703;BME280;60933;46.398;-63.798;2022-09-09T05:14:45;101351.81;;;17.71;67.56
66703;BME280;60933;46.398;-63.798;2022-09-09T05:17:11;101356.16;;;17.71;66.67
66703;BME280;60933;46.398;-63.798;2022-09-09T05:19:38;101352.81;;;17.69;67.96
66703;BME280;60933;46.398;-63.798;2022-09-09T05:22:04;101354.63;;;17.67;67.95
66703;BME280;60933;46.398;-63.798;2022-09-09T05:24:30;101357.22;;;17.67;67.45
66703;BME280;60933;46.398;-63.798;2022-09-09T05:26:59;101357.44;;;17.62;67.88
66703;BME280;60933;46.398;-63.798;2022-09-09T05:29:27;101352.34;;;17.59;68.58
66703;BME280;60933;46.398;-63.798;2022-09-09T05:31:53;101363.50;;;17.63;69.55
66703;BME280;60933;46.398;-63.798;2022-09-09T05:34:19;101367.03;;;17.62;70.15
66703;BME280;60933;46.398;-63.798;2022-09-09T05:36:46;101367.94;;;17.61;70.32
66703;BME280;60933;46.398;-63.798;2022-09-09T05:39:13;101368.16;;;17.56;70.47
66703;BME280;60933;46.398;-63.798;2022-09-09T05:41:39;101369.91;;;17.55;70.77
66703;BME280;60933;46.398;-63.798;2022-09-09T05:44:05;101365.75;;;17.51;70.49
66703;BME280;60933;46.398;-63.798;2022-09-09T05:46:31;101365.88;;;17.48;70.93
66703;BME280;60933;46.398;-63.798;2022-09-09T05:48:57;101352.53;;;17.35;69.09
66703;BME280;60933;46.398;-63.798;2022-09-09T05:51:25;101370.66;;;17.38;68.76
66703;BME280;60933;46.398;-63.798;2022-09-09T05:53:53;101376.06;;;17.34;68.95
66703;BME280;60933;46.398;-63.798;2022-09-09T05:56:25;101373.66;;;17.29;68.45
66703;BME280;60933;46.398;-63.798;2022-09-09T05:58:52;101373.81;;;17.26;68.58
66703;BME280;60933;46.398;-63.798;2022-09-09T06:01:25;101362.97;;;17.15;69.68
66703;BME280;60933;46.398;-63.798;2022-09-09T06:03:54;101362.84;;;17.18;69.21
66703;BME280;60933;46.398;-63.798;2022-09-09T06:06:26;101370.84;;;17.13;69.51
66703;BME280;60933;46.398;-63.798;2022-09-09T06:08:54;101366.66;;;17.09;68.36
66703;BME280;60933;46.398;-63.798;2022-09-09T06:11:23;101368.56;;;17.05;68.97
66703;BME280;60933;46.398;-63.798;2022-09-09T06:13:50;101354.16;;;16.97;68.20
66703;BME280;60933;46.398;-63.798;2022-09-09T06:16:24;101364.59;;;16.97;67.98
66703;BME280;60933;46.398;-63.798;2022-09-09T06:18:51;101363.97;;;16.90;67.82
66703;BME280;60933;46.398;-63.798;2022-09-09T06:21:25;101362.41;;;16.86;68.05
66703;BME280;60933;46.398;-63.798;2022-09-09T06:23:51;101358.25;;;16.82;67.80
66703;BME280;60933;46.398;-63.798;2022-09-09T06:26:30;101360.25;;;16.75;68.28
66703;BME280;60933;46.398;-63.798;2022-09-09T06:28:57;101358.66;;;16.71;67.45
66703;BME280;60933;46.398;-63.798;2022-09-09T06:31:26;101365.81;;;16.66;68.12
66703;BME280;60933;46.398;-63.798;2022-09-09T06:33:53;101369.34;;;16.65;69.53
66703;BME280;60933;46.398;-63.798;2022-09-09T06:36:31;101363.47;;;16.59;68.97
66703;BME280;60933;46.398;-63.798;2022-09-09T06:38:58;101364.47;;;16.55;69.38
66703;BME280;60933;46.398;-63.798;2022-09-09T06:41:27;101366.44;;;16.50;68.90
66703;BME280;60933;46.398;-63.798;2022-09-09T06:43:53;101375.16;;;16.49;68.74
66703;BME280;60933;46.398;-63.798;2022-09-09T06:46:25;101371.78;;;16.47;69.19
66703;BME280;60933;46.398;-63.798;2022-09-09T06:48:54;101371.91;;;16.44;68.30
66703;BME280;60933;46.398;-63.798;2022-09-09T06:51:29;101372.00;;;16.41;68.69
66703;BME280;60933;46.398;-63.798;2022-09-09T06:53:57;101370.31;;;16.40;70.15
66703;BME280;60933;46.398;-63.798;2022-09-09T06:56:35;101372.16;;;16.38;68.46
66703;BME280;60933;46.398;-63.798;2022-09-09T06:59:03;101373.88;;;16.37;68.69
66703;BME280;60933;46.398;-63.798;2022-09-09T07:01:38;101358.22;;;16.39;72.34
66703;BME280;60933;46.398;-63.798;2022-09-09T07:04:07;101358.22;;;16.39;70.34
66703;BME280;60933;46.398;-63.798;2022-09-09T07:06:43;101353.00;;;16.39;72.19
66703;BME280;60933;46.398;-63.798;2022-09-09T07:09:11;101362.44;;;16.41;70.46
66703;BME280;60933;46.398;-63.798;2022-09-09T07:11:43;101357.16;;;16.43;71.44
66703;BME280;60933;46.398;-63.798;2022-09-09T07:14:10;101361.59;;;16.41;70.88
66703;BME280;60933;46.398;-63.798;2022-09-09T07:16:42;101353.84;;;16.39;70.76
66703;BME280;60933;46.398;-63.798;2022-09-09T07:19:10;101356.38;;;16.41;70.55
66703;BME280;60933;46.398;-63.798;2022-09-09T07:21:36;101349.41;;;16.41;71.51
66703;BME280;60933;46.398;-63.798;2022-09-09T07:24:03;101356.44;;;16.39;69.50
66703;BME280;60933;46.398;-63.798;2022-09-09T07:26:33;101361.66;;;16.39;69.15
66703;BME280;60933;46.398;-63.798;2022-09-09T07:29:00;101356.63;;;16.35;68.58
66703;BME280;60933;46.398;-63.798;2022-09-09T07:31:32;101351.41;;;16.35;68.88
66703;BME280;60933;46.398;-63.798;2022-09-09T07:33:58;101352.38;;;16.32;68.27
66703;BME280;60933;46.398;-63.798;2022-09-09T07:36:33;101367.09;;;16.33;68.85
66703;BME280;60933;46.398;-63.798;2022-09-09T07:39:02;101367.03;;;16.35;69.81
66703;BME280;60933;46.398;-63.798;2022-09-09T07:41:33;101361.75;;;16.36;73.82
66703;BME280;60933;46.398;-63.798;2022-09-09T07:44:16;101366.78;;;16.41;74.86
66703;BME280;60933;46.398;-63.798;2022-09-09T07:46:43;101366.78;;;16.41;72.38
66703;BME280;60933;46.398;-63.798;2022-09-09T07:49:12;101371.09;;;16.42;71.91
66703;BME280;60933;46.398;-63.798;2022-09-09T07:51:41;101360.75;;;16.40;72.62
66703;BME280;60933;46.398;-63.798;2022-09-09T07:54:10;101364.88;;;16.46;73.93
66703;BME280;60933;46.398;-63.798;2022-09-09T07:56:38;101361.47;;;16.44;72.19
66703;BME280;60933;46.398;-63.798;2022-09-09T07:59:04;101368.31;;;16.46;72.37
66703;BME280;60933;46.398;-63.798;2022-09-09T08:01:34;101360.56;;;16.45;71.55
66703;BME280;60933;46.398;-63.798;2022-09-09T08:04:05;101364.09;;;16.44;71.19
66703;BME280;60933;46.398;-63.798;2022-09-09T08:06:40;101357.09;;;16.44;74.41
66703;BME280;60933;46.398;-63.798;2022-09-09T08:09:08;101364.00;;;16.45;73.64
66703;BME280;60933;46.398;-63.798;2022-09-09T08:11:35;101362.31;;;16.44;74.12
66703;BME280;60933;46.398;-63.798;2022-09-09T08:14:02;101357.97;;;16.45;74.02
66703;BME280;60933;46.398;-63.798;2022-09-09T08:16:31;101362.28;;;16.46;73.03
66703;BME280;60933;46.398;-63.798;2022-09-09T08:18:58;101363.91;;;16.49;75.39
66703;BME280;60933;46.398;-63.798;2022-09-09T08:21:27;101364.69;;;16.51;76.27
66703;BME280;60933;46.398;-63.798;2022-09-09T08:23:55;101371.66;;;16.50;76.09
66703;BME280;60933;46.398;-63.798;2022-09-09T08:26:26;101369.94;;;16.49;74.90
66703;BME280;60933;46.398;-63.798;2022-09-09T08:28:53;101379.34;;;16.53;77.61
66703;BME280;60933;46.398;-63.798;2022-09-09T08:33:50;101370.66;;;16.53;75.49
66703;BME280;60933;46.398;-63.798;2022-09-09T08:36:19;101374.91;;;16.55;77.00
66703;BME280;60933;46.398;-63.798;2022-09-09T08:38:51;101373.16;;;16.56;77.48
66703;BME280;60933;46.398;-63.798;2022-09-09T08:44:07;101384.44;;;16.56;76.26
66703;BME280;60933;46.398;-63.798;2022-09-09T08:52:55;101386.13;;;16.57;78.08
66703;BME280;60933;46.398;-63.798;2022-09-09T08:58:06;101387.16;;;16.53;78.13
66703;BME280;60933;46.398;-63.798;2022-09-09T09:11:39;101390.44;;;16.58;78.88
66703;BME280;60933;46.398;-63.798;2022-09-09T09:14:18;101393.84;;;16.60;79.64
66703;BME280;60933;46.398;-63.798;2022-09-09T09:17:26;101394.66;;;16.61;79.17
66703;BME280;60933;46.398;-63.798;2022-09-09T09:19:53;101396.56;;;16.57;77.07
66703;BME280;60933;46.398;-63.798;2022-09-09T09:22:39;101401.75;;;16.57;77.64
66703;BME280;60933;46.398;-63.798;2022-09-09T09:25:23;101401.75;;;16.57;78.21
66703;BME280;60933;46.398;-63.798;2022-09-09T09:28:03;101412.19;;;16.57;79.97
66703;BME280;60933;46.398;-63.798;2022-09-09T09:30:37;101412.25;;;16.56;80.01
66703;BME280;60933;46.398;-63.798;2022-09-09T09:33:27;101419.91;;;16.60;80.12
66703;BME280;60933;46.398;-63.798;2022-09-09T09:35:57;101411.28;;;16.58;79.33
66703;BME280;60933;46.398;-63.798;2022-09-09T09:38:27;101418.19;;;16.59;78.81
66703;BME280;60933;46.398;-63.798;2022-09-09T09:40:55;101416.38;;;16.61;78.89
66703;BME280;60933;46.398;-63.798;2022-09-09T09:43:35;101408.50;;;16.63;78.49
66703;BME280;60933;46.398;-63.798;2022-09-09T09:46:03;101408.44;;;16.65;79.42
66703;BME280;60933;46.398;-63.798;2022-09-09T09:48:29;101411.91;;;16.65;78.45
66703;BME280;60933;46.398;-63.798;2022-09-09T09:50:59;101410.28;;;16.63;78.40
66703;BME280;60933;46.398;-63.798;2022-09-09T09:53:30;101411.91;;;16.65;78.47
66703;BME280;60933;46.398;-63.798;2022-09-09T09:56:00;101410.19;;;16.64;76.39
66703;BME280;60933;46.398;-63.798;2022-09-09T09:58:29;101406.78;;;16.62;77.21
66703;BME280;60933;46.398;-63.798;2022-09-09T10:00:59;101429.16;;;16.68;78.16
66703;BME280;60933;46.398;-63.798;2022-09-09T10:03:27;101429.97;;;16.70;79.31
66703;BME280;60933;46.398;-63.798;2022-09-09T10:05:54;101428.13;;;16.72;79.18
66703;BME280;60933;46.398;-63.798;2022-09-09T10:08:25;101413.34;;;16.72;77.96
66703;BME280;60933;46.398;-63.798;2022-09-09T10:19:31;101423.84;;;16.93;81.09
66703;BME280;60933;46.398;-63.798;2022-09-09T10:27:37;101441.72;;;17.02;81.40
66703;BME280;60933;46.398;-63.798;2022-09-09T10:36:08;101462.09;;;17.15;81.24
66703;BME280;60933;46.398;-63.798;2022-09-09T10:41:40;101455.16;;;17.14;79.88
66703;BME280;60933;46.398;-63.798;2022-09-09T10:47:06;101459.00;;;17.27;78.56
66703;BME280;60933;46.398;-63.798;2022-09-09T10:50:11;101468.44;;;17.30;78.32
66703;BME280;60933;46.398;-63.798;2022-09-09T10:55:18;101473.53;;;17.33;76.93
66703;BME280;60933;46.398;-63.798;2022-09-09T10:57:47;101475.28;;;17.32;77.55
66703;BME280;60933;46.398;-63.798;2022-09-09T11:00:21;101489.13;;;17.34;77.75
66703;BME280;60933;46.398;-63.798;2022-09-09T11:03:00;101489.06;;;17.36;78.58
66703;BME280;60933;46.398;-63.798;2022-09-09T11:05:45;101485.63;;;17.35;78.54
66703;BME280;60933;46.398;-63.798;2022-09-09T11:08:19;101492.38;;;17.39;77.78
66703;BME280;60933;46.398;-63.798;2022-09-09T11:16:26;101511.25;;;17.46;77.29
66703;BME280;60933;46.398;-63.798;2022-09-09T11:21:41;101512.16;;;17.45;76.80
66703;BME280;60933;46.398;-63.798;2022-09-09T11:24:16;101512.03;;;17.48;76.67
66703;BME280;60933;46.398;-63.798;2022-09-09T11:33:01;101514.34;;;17.56;76.47
66703;BME280;60933;46.398;-63.798;2022-09-09T11:40:25;101512.75;;;17.52;74.71
66703;BME280;60933;46.398;-63.798;2022-09-09T11:43:10;101517.13;;;17.51;75.62
66703;BME280;60933;46.398;-63.798;2022-09-09T11:45:40;101536.13;;;17.55;76.35
66703;BME280;60933;46.398;-63.798;2022-09-09T11:48:34;101533.63;;;17.52;76.78
66703;BME280;60933;46.398;-63.798;2022-09-09T11:51:09;101530.19;;;17.51;76.74
66703;BME280;60933;46.398;-63.798;2022-09-09T11:53:49;101531.97;;;17.51;77.33
66703;BME280;60933;46.398;-63.798;2022-09-09T11:56:25;101534.78;;;17.45;77.69
66703;BME280;60933;46.398;-63.798;2022-09-09T11:58:58;101535.78;;;17.42;77.42
66703;BME280;60933;46.398;-63.798;2022-09-09T12:01:39;101534.97;;;17.40;78.04
66703;BME280;60933;46.398;-63.798;2022-09-09T12:04:15;101542.88;;;17.38;77.46
66703;BME280;60933;46.398;-63.798;2022-09-09T12:17:30;101528.91;;;17.62;76.56
66703;BME280;60933;46.398;-63.798;2022-09-09T12:22:51;101533.00;;;17.67;76.83
66703;BME280;60933;46.398;-63.798;2022-09-09T12:25:30;101535.66;;;17.66;76.45
66703;BME280;60933;46.398;-63.798;2022-09-09T12:28:19;101552.25;;;17.65;76.52
66703;BME280;60933;46.398;-63.798;2022-09-09T12:31:40;101546.19;;;17.64;76.84
66703;BME280;60933;46.398;-63.798;2022-09-09T12:33:44;101549.78;;;17.62;77.19
66703;BME280;60933;46.398;-63.798;2022-09-09T12:36:25;101546.50;;;17.56;77.41
66703;BME280;60933;46.398;-63.798;2022-09-09T12:38:57;101537.75;;;17.58;77.74
66703;BME280;60933;46.398;-63.798;2022-09-09T12:41:28;101543.84;;;17.58;77.11
66703;BME280;60933;46.398;-63.798;2022-09-09T12:44:09;101539.44;;;17.59;76.67
66703;BME280;60933;46.398;-63.798;2022-09-09T12:46:39;101540.38;;;17.58;76.87
66703;BME280;60933;46.398;-63.798;2022-09-09T12:49:27;101544.69;;;17.59;77.05
66703;BME280;60933;46.398;-63.798;2022-09-09T12:51:55;101542.00;;;17.60;76.35
66703;BME280;60933;46.398;-63.798;2022-09-09T12:54:23;101551.44;;;17.63;76.26
66703;BME280;60933;46.398;-63.798;2022-09-09T12:56:49;101542.72;;;17.64;76.35
66703;BME280;60933;46.398;-63.798;2022-09-09T12:59:27;101549.50;;;17.68;75.50
66703;BME280;60933;46.398;-63.798;2022-09-09T13:02:00;101548.28;;;17.77;75.16
66703;BME280;60933;46.398;-63.798;2022-09-09T13:04:26;101560.41;;;17.78;76.07
66703;BME280;60933;46.398;-63.798;2022-09-09T13:06:52;101567.41;;;17.77;75.77
66703;BME280;60933;46.398;-63.798;2022-09-09T13:09:19;101563.22;;;17.73;75.84
66703;BME280;60933;46.398;-63.798;2022-09-09T13:11:50;101559.59;;;17.77;76.24
66703;BME280;60933;46.398;-63.798;2022-09-09T13:14:26;101558.63;;;17.78;75.87
66703;BME280;60933;46.398;-63.798;2022-09-09T13:16:59;101558.72;;;17.77;75.94
66703;BME280;60933;46.398;-63.798;2022-09-09T13:19:32;101557.16;;;17.72;75.19
66703;BME280;60933;46.398;-63.798;2022-09-09T13:22:00;101562.56;;;17.88;75.01
66703;BME280;60933;46.398;-63.798;2022-09-09T13:24:37;101562.53;;;18.11;73.19
66703;BME280;60933;46.398;-63.798;2022-09-09T13:27:20;101563.69;;;18.24;73.47
66703;BME280;60933;46.398;-63.798;2022-09-09T13:29:54;101564.50;;;18.45;74.63
66703;BME280;60933;46.398;-63.798;2022-09-09T13:32:22;101563.03;;;18.59;74.29
66703;BME280;60933;46.398;-63.798;2022-09-09T13:34:56;101565.84;;;18.73;73.85
66703;BME280;60933;46.398;-63.798;2022-09-09T13:37:35;101565.78;;;18.94;73.10
66703;BME280;60933;46.398;-63.798;2022-09-09T13:40:03;101574.63;;;19.10;71.08
66703;BME280;60933;46.398;-63.798;2022-09-09T13:42:33;101580.81;;;19.27;72.09
66703;BME280;60933;46.398;-63.798;2022-09-09T13:45:04;101584.47;;;19.42;72.98
66703;BME280;60933;46.398;-63.798;2022-09-09T13:47:35;101578.63;;;19.54;71.84
66703;BME280;60933;46.398;-63.798;2022-09-09T13:52:48;101573.63;;;19.85;71.76
66703;BME280;60933;46.398;-63.798;2022-09-09T13:55:17;101580.56;;;20.03;71.63
66703;BME280;60933;46.398;-63.798;2022-09-09T13:58:04;101582.25;;;20.22;70.70
66703;BME280;60933;46.398;-63.798;2022-09-09T14:00:32;101574.41;;;20.38;69.84
66703;BME280;60933;46.398;-63.798;2022-09-09T14:02:59;101566.66;;;20.52;66.74
66703;BME280;60933;46.398;-63.798;2022-09-09T14:05:29;101570.38;;;20.64;68.53
66703;BME280;60933;46.398;-63.798;2022-09-09T14:07:56;101572.19;;;20.80;66.32
66703;BME280;60933;46.398;-63.798;2022-09-09T14:10:23;101576.03;;;20.90;66.61
66703;BME280;60933;46.398;-63.798;2022-09-09T14:12:49;101582.28;;;21.03;64.26
66703;BME280;60933;46.398;-63.798;2022-09-09T14:15:15;101578.13;;;21.15;64.58
66703;BME280;60933;46.398;-63.798;2022-09-09T14:17:42;101573.75;;;21.30;65.82
66703;BME280;60933;46.398;-63.798;2022-09-09T14:20:09;101573.06;;;21.43;66.34
66703;BME280;60933;46.398;-63.798;2022-09-09T14:22:37;101574.75;;;21.60;66.41
66703;BME280;60933;46.398;-63.798;2022-09-09T14:25:05;101581.09;;;21.86;63.54
66703;BME280;60933;46.398;-63.798;2022-09-09T14:27:32;101572.66;;;21.95;64.60
66703;BME280;60933;46.398;-63.798;2022-09-09T14:29:58;101577.75;;;22.13;64.02
66703;BME280;60933;46.398;-63.798;2022-09-09T14:32:25;101576.88;;;22.27;63.66
66703;BME280;60933;46.398;-63.798;2022-09-09T14:34:52;101576.09;;;22.41;63.61
66703;BME280;60933;46.398;-63.798;2022-09-09T14:37:18;101571.75;;;22.54;64.19
66703;BME280;60933;46.398;-63.798;2022-09-09T14:39:44;101580.53;;;22.82;63.70
66703;BME280;60933;46.398;-63.798;2022-09-09T14:42:13;101580.59;;;22.95;61.98
66703;BME280;60933;46.398;-63.798;2022-09-09T14:44:39;101567.88;;;23.02;61.76
66703;BME280;60933;46.398;-63.798;2022-09-09T14:47:07;101571.63;;;23.12;62.58
66703;BME280;60933;46.398;-63.798;2022-09-09T14:49:34;101572.22;;;23.30;61.21
66703;BME280;60933;46.398;-63.798;2022-09-09T14:52:01;101573.22;;;23.42;61.85
66703;BME280;60933;46.398;-63.798;2022-09-09T14:54:27;101576.19;;;23.50;61.07
66703;BME280;60933;46.398;-63.798;2022-09-09T14:56:53;101559.53;;;23.63;62.42
66703;BME280;60933;46.398;-63.798;2022-09-09T14:59:20;101553.66;;;23.72;62.36
66703;BME280;60933;46.398;-63.798;2022-09-09T15:01:47;101556.97;;;24.01;61.83
66703;BME280;60933;46.398;-63.798;2022-09-09T15:04:14;101556.22;;;24.25;61.15